Last 24 Hours

UH Manoa Atmospheric Sciences

15 Minute Data | Pacific/Honolulu
as of 8/3/21 3:03 AM HST
Station Date Time Temp (°F) RH (%) Dew Pt (°F) Wind Spd (mph) Wind Dir (°) Wind Gust (mph) Latest Rain (In) Solar Rad (W/m2) Heat Index (°F) Barometric Press (inHg) Daily Rain (In) Daily Min Temp (°F) Daily Max Temp (°F) Daily Max Wind (mph)
UH Manoa Atmospheric Sciences 8/3/21 0300 76.2 74 67.1 8.6 ENE | 57 19.9 0.00 0 76.2 30.11 0.01 74.9 77.9 27.0
UH Manoa Atmospheric Sciences 8/3/21 0245 76.1 71 66.1 10.1 ENE | 64 21.7 0.01 0 76.1 30.12 0.01 74.9 77.9 27.0
UH Manoa Atmospheric Sciences 8/3/21 0230 75.7 76 67.6 10.1 ENE | 63 19.4 0.00 0 75.7 30.12 0.00 74.9 77.9 27.0
UH Manoa Atmospheric Sciences 8/3/21 0215 75.8 76 67.8 10.1 ENE | 61 27.0 0.00 0 75.8 30.12 0.00 74.9 77.9 27.0
UH Manoa Atmospheric Sciences 8/3/21 0200 76.1 75 67.7 8.5 ENE | 66 23.2 0.00 0 76.1 30.12 0.00 74.9 77.9 23.2
UH Manoa Atmospheric Sciences 8/3/21 0145 75.4 76 67.5 8.7 ENE | 59 18.3 0.00 0 75.4 30.12 0.00 74.9 77.9 20.9
UH Manoa Atmospheric Sciences 8/3/21 0130 76.0 76 67.8 7.9 ENE | 63 20.9 0.00 0 76.0 30.13 0.00 75.0 77.9 20.9
UH Manoa Atmospheric Sciences 8/3/21 0115 77.0 73 67.7 3.9 ENE | 57 10.8 0.00 0 77.0 30.12 0.00 76.6 77.9 17.7
UH Manoa Atmospheric Sciences 8/3/21 0100 77.2 72 67.6 4.7 NE | 53 10.6 0.00 0 77.2 30.13 0.00 77.1 77.9 17.7
UH Manoa Atmospheric Sciences 8/3/21 0045 77.2 72 67.8 7.7 ENE | 57 16.6 0.00 0 77.2 30.13 0.00 77.1 77.9 17.7
UH Manoa Atmospheric Sciences 8/3/21 0030 77.4 72 67.7 6.2 NE | 53 14.6 0.00 0 77.4 30.13 0.00 77.1 77.9 17.7
UH Manoa Atmospheric Sciences 8/3/21 0015 77.4 72 67.8 7.9 NE | 44 17.7 0.00 0 77.4 30.14 0.00 77.1 77.9 17.7
UH Manoa Atmospheric Sciences 8/3/21 0000 76.7 74 67.9 6.6 NE | 52 14.7 0.00 0 76.7 30.14 0.03 74.0 84.9 31.1
UH Manoa Atmospheric Sciences 8/2/21 2345 76.5 75 68.0 8.2 ENE | 60 18.1 0.00 0 76.5 30.14 0.03 74.0 84.9 31.1
UH Manoa Atmospheric Sciences 8/2/21 2330 77.1 73 67.8 9.0 ENE | 64 22.1 0.00 0 77.1 30.14 0.03 74.0 84.9 31.1
UH Manoa Atmospheric Sciences 8/2/21 2315 77.2 71 67.3 9.9 ENE | 61 21.3 0.00 0 77.2 30.15 0.03 74.0 84.9 31.1
UH Manoa Atmospheric Sciences 8/2/21 2300 77.3 72 67.4 6.8 ENE | 68 14.3 0.00 0 77.3 30.15 0.03 74.0 84.9 31.1
UH Manoa Atmospheric Sciences 8/2/21 2245 77.8 67 66.1 7.1 ENE | 68 19.2 0.00 0 77.8 30.15 0.03 74.0 84.9 31.1
UH Manoa Atmospheric Sciences 8/2/21 2230 77.8 67 66.1 6.2 ENE | 77 21.2 0.00 0 77.8 30.15 0.03 74.0 84.9 31.1
UH Manoa Atmospheric Sciences 8/2/21 2215 77.8 68 66.6 7.6 NE | 55 17.7 0.00 0 77.8 30.15 0.03 74.0 84.9 31.1
UH Manoa Atmospheric Sciences 8/2/21 2200 78.0 69 66.9 6.2 NE | 47 15.4 0.00 0 78.0 30.15 0.03 74.0 84.9 31.1
UH Manoa Atmospheric Sciences 8/2/21 2145 78.1 69 67.0 7.6 ENE | 62 15.2 0.00 0 78.1 30.15 0.03 74.0 84.9 31.1
UH Manoa Atmospheric Sciences 8/2/21 2130 77.9 69 67.1 7.1 ENE | 64 14.0 0.00 0 77.9 30.14 0.03 74.0 84.9 31.1
UH Manoa Atmospheric Sciences 8/2/21 2115 78.0 69 67.1 11.6 NE | 46 23.6 0.00 0 78.0 30.14 0.03 74.0 84.9 31.1
UH Manoa Atmospheric Sciences 8/2/21 2100 78.1 70 67.7 8.0 NE | 53 18.0 0.00 0 78.1 30.13 0.03 74.0 84.9 31.1
UH Manoa Atmospheric Sciences 8/2/21 2045 78.1 71 67.9 9.5 NE | 56 17.3 0.00 0 78.1 30.13 0.03 74.0 84.9 31.1
UH Manoa Atmospheric Sciences 8/2/21 2030 78.1 71 67.9 7.5 NE | 56 18.1 0.00 0 78.1 30.13 0.03 74.0 84.9 31.1
UH Manoa Atmospheric Sciences 8/2/21 2015 78.0 70 67.5 11.8 NE | 51 25.1 0.00 0 78.0 30.12 0.03 74.0 84.9 31.1
UH Manoa Atmospheric Sciences 8/2/21 2000 78.1 67 66.2 7.5 ENE | 62 15.5 0.00 0 78.1 30.12 0.03 74.0 84.9 31.1
UH Manoa Atmospheric Sciences 8/2/21 1945 78.1 67 66.2 9.4 ENE | 59 26.2 0.00 0 78.1 30.12 0.03 74.0 84.9 31.1
UH Manoa Atmospheric Sciences 8/2/21 1930 78.4 67 66.4 7.2 NE | 56 16.6 0.00 0 78.4 30.12 0.03 74.0 84.9 31.1
UH Manoa Atmospheric Sciences 8/2/21 1915 78.3 67 66.4 6.7 ENE | 65 15.5 0.00 4 78.3 30.11 0.03 74.0 84.9 31.1
UH Manoa Atmospheric Sciences 8/2/21 1900 78.6 66 66.2 8.5 NE | 48 20.3 0.00 37 78.6 30.11 0.03 74.0 84.9 31.1
UH Manoa Atmospheric Sciences 8/2/21 1845 78.7 66 66.3 8.7 NE | 47 24.4 0.00 99 78.7 30.11 0.03 74.0 84.9 31.1
UH Manoa Atmospheric Sciences 8/2/21 1830 78.9 65 66.1 9.5 ENE | 59 23.1 0.00 135 78.9 30.10 0.03 74.0 84.9 31.1
UH Manoa Atmospheric Sciences 8/2/21 1815 79.0 64 66.0 11.0 NE | 44 22.1 0.00 165 79.0 30.10 0.03 74.0 84.9 31.1
UH Manoa Atmospheric Sciences 8/2/21 1800 79.1 64 66.1 12.8 NE | 43 26.8 0.00 217 79.1 30.10 0.03 74.0 84.9 31.1
UH Manoa Atmospheric Sciences 8/2/21 1745 79.2 64 66.0 12.7 NE | 42 26.7 0.00 286 79.2 30.10 0.03 74.0 84.9 31.1
UH Manoa Atmospheric Sciences 8/2/21 1730 79.6 64 66.3 13.6 NE | 45 28.9 0.00 335 79.7 30.09 0.03 74.0 84.9 31.1
UH Manoa Atmospheric Sciences 8/2/21 1715 80.1 63 66.4 11.5 NE | 46 25.5 0.00 410 81.6 30.09 0.03 74.0 84.9 31.1
UH Manoa Atmospheric Sciences 8/2/21 1700 80.0 64 66.6 15.5 NE | 42 31.1 0.00 478 81.1 30.09 0.03 74.0 84.9 31.1
UH Manoa Atmospheric Sciences 8/2/21 1645 80.4 61 65.8 13.2 NE | 39 27.7 0.00 535 82.4 30.09 0.03 74.0 84.9 28.7
UH Manoa Atmospheric Sciences 8/2/21 1630 80.9 60 65.7 10.6 NE | 48 21.8 0.00 563 82.9 30.10 0.03 74.0 84.9 28.7
UH Manoa Atmospheric Sciences 8/2/21 1615 80.7 58 64.7 14.0 NE | 43 26.4 0.00 606 82.5 30.10 0.03 74.0 84.9 28.7
UH Manoa Atmospheric Sciences 8/2/21 1600 80.9 58 65.0 12.1 NE | 39 28.7 0.00 694 82.7 30.10 0.03 74.0 84.9 28.7
UH Manoa Atmospheric Sciences 8/2/21 1545 80.9 60 65.8 13.1 NE | 38 23.2 0.00 707 82.9 30.11 0.03 74.0 84.9 28.7
UH Manoa Atmospheric Sciences 8/2/21 1530 81.4 59 65.6 12.9 NE | 47 26.3 0.00 712 83.4 30.11 0.03 74.0 84.9 28.7
UH Manoa Atmospheric Sciences 8/2/21 1515 81.2 59 65.7 11.2 NE | 45 25.6 0.00 665 83.2 30.11 0.03 74.0 84.9 28.7
UH Manoa Atmospheric Sciences 8/2/21 1500 81.5 58 65.3 11.3 NE | 41 25.6 0.00 882 83.4 30.11 0.03 74.0 84.9 28.7
UH Manoa Atmospheric Sciences 8/2/21 1445 81.6 59 65.8 12.4 NE | 42 22.2 0.00 864 83.6 30.11 0.03 74.0 84.9 28.7
UH Manoa Atmospheric Sciences 8/2/21 1430 82.0 58 65.6 11.0 NE | 44 23.1 0.00 900 84.0 30.11 0.03 74.0 84.9 28.7
UH Manoa Atmospheric Sciences 8/2/21 1415 82.1 55 64.5 11.9 NE | 42 22.7 0.00 953 83.7 30.12 0.03 74.0 84.9 28.7
UH Manoa Atmospheric Sciences 8/2/21 1400 82.4 56 65.2 11.4 NE | 41 22.5 0.00 990 84.2 30.12 0.03 74.0 84.9 28.7
UH Manoa Atmospheric Sciences 8/2/21 1345 82.9 57 66.0 8.7 NE | 47 17.4 0.00 996 85.1 30.13 0.03 74.0 84.9 28.7
UH Manoa Atmospheric Sciences 8/2/21 1330 82.1 57 65.4 11.7 NE | 43 28.7 0.00 1,005 84.0 30.12 0.03 74.0 84.9 28.7
UH Manoa Atmospheric Sciences 8/2/21 1315 82.1 59 66.5 10.9 NE | 39 24.2 0.00 1,011 84.4 30.12 0.03 74.0 84.9 28.5
UH Manoa Atmospheric Sciences 8/2/21 1300 82.4 59 66.5 10.6 NE | 47 22.7 0.00 1,014 84.7 30.13 0.03 74.0 84.9 28.5
UH Manoa Atmospheric Sciences 8/2/21 1245 83.0 58 66.6 7.4 NE | 56 17.7 0.00 1,008 85.5 30.13 0.03 74.0 84.9 28.5
UH Manoa Atmospheric Sciences 8/2/21 1230 82.1 59 66.5 10.6 NE | 47 20.9 0.00 1,013 84.4 30.14 0.03 74.0 83.2 28.5
UH Manoa Atmospheric Sciences 8/2/21 1215 81.6 60 66.6 9.7 NE | 46 18.2 0.00 1,011 83.9 30.14 0.03 74.0 83.1 28.5
UH Manoa Atmospheric Sciences 8/2/21 1200 81.9 59 66.4 9.2 NE | 47 20.7 0.00 1,021 84.1 30.15 0.03 74.0 83.1 28.5
UH Manoa Atmospheric Sciences 8/2/21 1145 81.6 60 66.2 9.4 NE | 53 18.0 0.00 1,009 83.8 30.15 0.03 74.0 82.3 28.5
UH Manoa Atmospheric Sciences 8/2/21 1130 81.5 58 65.4 9.1 ENE | 61 17.1 0.00 887 83.4 30.15 0.03 74.0 82.3 28.5
UH Manoa Atmospheric Sciences 8/2/21 1115 81.4 58 65.1 9.1 NE | 56 21.3 0.00 921 83.3 30.16 0.03 74.0 82.3 28.5
UH Manoa Atmospheric Sciences 8/2/21 1100 81.1 57 64.7 10.5 ENE | 58 22.1 0.00 980 82.9 30.15 0.03 74.0 81.8 28.5
UH Manoa Atmospheric Sciences 8/2/21 1045 80.6 60 65.2 9.5 ENE | 61 26.8 0.00 745 82.4 30.15 0.03 74.0 81.3 28.5
UH Manoa Atmospheric Sciences 8/2/21 1030 79.9 61 65.4 11.6 ENE | 58 21.5 0.00 721 80.6 30.15 0.03 74.0 80.9 28.5
UH Manoa Atmospheric Sciences 8/2/21 1015 80.0 61 65.5 10.4 ENE | 65 26.2 0.00 786 81.0 30.15 0.03 74.0 80.9 28.5
UH Manoa Atmospheric Sciences 8/2/21 1000 79.2 63 65.5 10.5 ENE | 57 21.6 0.00 442 79.2 30.16 0.03 74.0 79.5 28.5
UH Manoa Atmospheric Sciences 8/2/21 0945 78.7 66 66.4 11.3 ENE | 66 25.4 0.00 508 78.7 30.16 0.03 74.0 79.3 28.5
UH Manoa Atmospheric Sciences 8/2/21 0930 78.4 67 66.3 9.7 NE | 55 18.4 0.00 296 78.4 30.16 0.03 74.0 78.9 28.5
UH Manoa Atmospheric Sciences 8/2/21 0915 78.2 66 66.0 10.6 NE | 54 23.8 0.00 536 78.2 30.16 0.03 74.0 78.6 28.5
UH Manoa Atmospheric Sciences 8/2/21 0900 77.7 67 65.9 9.9 NE | 52 21.1 0.00 383 77.7 30.16 0.03 74.0 78.2 28.5
UH Manoa Atmospheric Sciences 8/2/21 0845 77.1 69 66.2 9.7 NE | 55 17.7 0.00 252 77.1 30.16 0.03 74.0 78.2 28.5
UH Manoa Atmospheric Sciences 8/2/21 0830 76.5 70 66.0 11.0 ENE | 58 23.8 0.00 214 76.5 30.16 0.03 74.0 78.2 28.5
UH Manoa Atmospheric Sciences 8/2/21 0815 77.2 69 66.2 9.9 ENE | 62 20.9 0.00 143 77.2 30.16 0.03 74.0 78.2 28.5
UH Manoa Atmospheric Sciences 8/2/21 0800 77.5 68 65.9 9.4 ENE | 62 23.5 0.00 153 77.5 30.16 0.03 74.0 78.2 28.5
UH Manoa Atmospheric Sciences 8/2/21 0745 77.4 68 66.2 10.4 ENE | 65 23.6 0.00 60 77.4 30.15 0.03 74.0 78.2 28.5
UH Manoa Atmospheric Sciences 8/2/21 0730 77.3 68 66.0 9.0 ENE | 58 19.8 0.00 55 77.3 30.15 0.03 74.0 78.2 28.5
UH Manoa Atmospheric Sciences 8/2/21 0715 77.4 67 65.6 11.3 ENE | 66 22.7 0.00 62 77.4 30.14 0.03 74.0 78.2 28.5
UH Manoa Atmospheric Sciences 8/2/21 0700 77.1 68 65.9 8.8 ENE | 63 20.3 0.00 38 77.1 30.14 0.03 74.0 78.2 28.5
UH Manoa Atmospheric Sciences 8/2/21 0645 77.1 69 66.2 9.4 NE | 56 18.3 0.00 24 77.1 30.14 0.03 74.0 78.2 28.5
UH Manoa Atmospheric Sciences 8/2/21 0630 77.0 69 66.0 8.9 ENE | 59 19.4 0.00 10 77.0 30.14 0.03 74.0 78.2 28.5
UH Manoa Atmospheric Sciences 8/2/21 0615 76.9 70 66.4 11.7 ENE | 65 22.1 0.00 4 76.9 30.13 0.03 74.0 78.2 28.5
UH Manoa Atmospheric Sciences 8/2/21 0600 76.5 72 66.9 12.0 ENE | 64 23.4 0.00 0 76.5 30.13 0.03 74.0 78.2 28.5
UH Manoa Atmospheric Sciences 8/2/21 0545 75.9 73 66.7 8.6 ENE | 61 16.2 0.00 0 75.9 30.13 0.03 74.0 78.2 28.5
UH Manoa Atmospheric Sciences 8/2/21 0530 75.7 74 66.7 11.0 ENE | 65 22.4 0.00 0 75.7 30.13 0.03 74.0 78.2 28.5
UH Manoa Atmospheric Sciences 8/2/21 0515 75.6 74 66.9 11.3 ENE | 68 22.1 0.00 0 75.6 30.13 0.03 74.0 78.2 28.5
UH Manoa Atmospheric Sciences 8/2/21 0500 75.6 76 67.5 11.8 ENE | 57 28.3 0.00 0 75.6 30.12 0.03 74.0 78.2 28.5
UH Manoa Atmospheric Sciences 8/2/21 0445 75.1 78 67.6 8.8 NE | 55 16.4 0.00 0 75.1 30.12 0.03 74.0 78.2 28.5
UH Manoa Atmospheric Sciences 8/2/21 0430 75.5 75 67.2 11.4 ENE | 62 25.7 0.00 0 75.5 30.12 0.03 74.0 78.2 28.5
UH Manoa Atmospheric Sciences 8/2/21 0415 74.4 79 67.4 10.1 ENE | 63 25.7 0.00 0 74.4 30.12 0.03 74.0 78.2 28.5
UH Manoa Atmospheric Sciences 8/2/21 0400 75.0 79 68.1 7.8 ENE | 66 20.1 0.01 0 75.0 30.12 0.03 74.5 78.2 28.5
UH Manoa Atmospheric Sciences 8/2/21 0345 75.6 77 67.8 7.3 ENE | 67 14.5 0.01 0 75.6 30.12 0.02 74.8 78.2 28.5
UH Manoa Atmospheric Sciences 8/2/21 0330 75.2 77 67.6 7.8 ENE | 64 28.5 0.01 0 75.2 30.13 0.01 74.8 78.2 28.5
UH Manoa Atmospheric Sciences 8/2/21 0315 76.9 72 67.1 9.2 ENE | 59 22.1 0.00 0 76.9 30.12 0.00 75.4 78.2 23.2
UH Manoa Atmospheric Sciences 8/2/21 0300 77.7 69 66.6 9.0 NE | 56 23.2 0.00 0 77.7 30.12 0.00 77.0 78.2 23.2
Max     83.0 79 68.1 15.5 - 31.1 0.01 1,021 85.5 30.16 0.03 77.1 84.9 31.1
Avg     78.5 67 66.5 9.7 - 21.3 0.00 294 79.0 30.13 - - - -
Min     74.4 55 64.5 3.9 - 10.6 0.00 0 74.4 30.09 0.00 74.0 77.9 17.7